createdAt,value
2018-11-20T04:56:46.526Z,957.43
2018-11-20T04:57:46.629Z,957.40
2018-11-20T04:59:39.332Z,957.41
2018-11-20T05:00:39.312Z,957.40
2018-11-20T06:12:55.770Z,957.24
2018-11-20T06:13:55.566Z,957.20
2018-11-20T06:15:48.925Z,957.13
2018-11-20T06:16:48.903Z,957.26
2018-11-20T06:18:41.775Z,957.26
2018-11-20T06:19:41.733Z,957.26
2018-11-20T06:21:34.668Z,957.41
2018-11-20T06:22:34.591Z,957.37
2018-11-20T06:24:27.952Z,957.37
2018-11-20T06:25:27.888Z,957.41
2018-11-20T06:27:20.759Z,957.41
2018-11-20T06:28:20.724Z,957.45
2018-11-20T06:30:14.147Z,957.44
2018-11-20T06:31:14.040Z,957.45
2018-11-20T06:33:06.909Z,957.42
2018-11-20T06:34:06.878Z,957.40
2018-11-20T06:36:00.221Z,957.33
2018-11-20T06:37:00.201Z,957.39
2018-11-20T06:38:53.096Z,957.42
2018-11-20T06:39:53.048Z,957.43
2018-11-20T06:41:45.910Z,957.39
2018-11-20T06:42:45.883Z,957.27
2018-11-20T06:44:38.756Z,957.39
2018-11-20T06:45:38.732Z,957.39
2018-11-20T06:47:31.659Z,957.39
2018-11-20T06:48:31.581Z,957.38
2018-11-20T06:50:24.935Z,957.32
2018-11-20T06:51:24.920Z,957.36
2018-11-20T06:53:18.330Z,957.39
2018-11-20T06:54:18.236Z,957.39
2018-11-20T06:56:11.146Z,957.35
2018-11-20T06:57:11.092Z,957.37
2018-11-20T06:58:11.072Z,957.38
2018-11-20T06:59:11.060Z,957.41
2018-11-20T07:00:11.057Z,957.38
2018-11-20T07:01:11.040Z,957.46
2018-11-20T07:02:11.035Z,957.42
2018-11-20T07:03:11.041Z,957.40
2018-11-20T07:04:11.013Z,957.36
2018-11-20T07:05:11.000Z,957.36
2018-11-20T07:06:11.000Z,957.38
2018-11-20T07:07:11.039Z,957.36
2018-11-20T07:08:11.152Z,957.37
2018-11-20T07:09:10.968Z,957.40
2018-11-20T07:10:11.001Z,957.42
2018-11-20T07:11:10.946Z,957.39
2018-11-20T07:12:10.942Z,957.43
2018-11-20T07:13:10.929Z,957.46
2018-11-20T07:14:10.919Z,957.44
2018-11-20T07:15:11.008Z,957.46
2018-11-20T07:16:10.992Z,957.46
2018-11-20T07:17:10.893Z,957.42
2018-11-20T07:18:10.885Z,957.45
2018-11-20T07:19:10.876Z,957.44
2018-11-20T07:20:10.867Z,957.41
2018-11-20T07:21:10.859Z,957.48
2018-11-20T07:22:10.846Z,957.40
2018-11-20T07:23:10.839Z,957.49
2018-11-20T07:24:10.835Z,957.47
2018-11-20T07:25:10.819Z,957.40
2018-11-20T07:26:10.812Z,957.46
2018-11-20T07:27:10.804Z,957.50
2018-11-20T07:28:10.794Z,957.44
2018-11-20T07:29:10.783Z,957.50
2018-11-20T07:30:10.874Z,957.49
2018-11-20T07:31:10.815Z,957.45
2018-11-20T07:32:10.766Z,957.39
2018-11-20T07:33:10.750Z,957.37
2018-11-20T07:34:10.740Z,957.36
2018-11-20T07:35:10.732Z,957.31
2018-11-20T07:36:10.811Z,957.30
2018-11-20T07:37:10.872Z,957.32
2018-11-20T07:38:10.708Z,957.29
2018-11-20T07:39:10.697Z,957.38
2018-11-20T07:40:10.686Z,957.30
2018-11-20T07:41:10.676Z,957.34
2018-11-20T07:42:10.670Z,957.36
2018-11-20T07:43:10.699Z,957.35
2018-11-20T07:44:10.697Z,957.30
2018-11-20T07:45:10.642Z,957.30
2018-11-20T07:46:10.632Z,957.33
2018-11-20T07:47:10.623Z,957.24
2018-11-20T07:48:10.614Z,957.25
2018-11-20T07:49:10.606Z,957.20
2018-11-20T07:50:10.596Z,957.24
2018-11-20T07:51:10.589Z,957.27
2018-11-20T07:52:10.579Z,957.25
2018-11-20T07:53:10.570Z,957.26
2018-11-20T07:54:10.562Z,957.31
2018-11-20T07:55:10.591Z,957.30
2018-11-20T07:56:10.711Z,957.27
2018-11-20T07:57:10.534Z,957.28
2018-11-20T07:58:10.529Z,957.27
2018-11-20T07:59:10.516Z,957.30
2018-11-20T08:00:10.508Z,957.30
2018-11-20T08:01:10.497Z,957.25
2018-11-20T08:02:10.496Z,957.24
2018-11-20T08:03:10.485Z,957.23
2018-11-20T08:04:10.474Z,957.29
2018-11-20T08:05:10.466Z,957.24
2018-11-20T08:06:10.455Z,957.24
2018-11-20T08:07:10.445Z,957.24
2018-11-20T08:08:10.438Z,957.24
2018-11-20T08:09:10.428Z,957.22
2018-11-20T08:10:10.431Z,957.21
2018-11-20T08:11:10.411Z,957.22
2018-11-20T08:12:10.402Z,957.20
2018-11-20T08:13:10.392Z,957.22
2018-11-20T08:14:10.385Z,957.19
2018-11-20T08:15:10.373Z,957.22
2018-11-20T08:16:10.454Z,957.23
2018-11-20T08:17:10.358Z,957.19
2018-11-20T08:18:10.348Z,957.17
2018-11-20T08:19:10.339Z,957.10
2018-11-20T08:20:10.330Z,957.15
2018-11-20T08:21:10.322Z,957.14
2018-11-20T08:22:10.311Z,957.21
2018-11-20T08:23:10.301Z,957.13
2018-11-20T08:24:10.295Z,957.15
2018-11-20T08:25:10.291Z,957.16
2018-11-20T08:26:10.420Z,957.18
2018-11-20T08:27:10.268Z,957.19
2018-11-20T08:28:10.261Z,957.17
2018-11-20T08:29:10.261Z,957.21
2018-11-20T08:30:10.245Z,957.19
2018-11-20T08:31:10.326Z,957.17
2018-11-20T08:32:10.227Z,957.17
2018-11-20T08:33:10.218Z,957.14
2018-11-20T08:34:10.235Z,957.13
2018-11-20T08:35:10.258Z,957.14
2018-11-20T08:36:10.187Z,957.15
2018-11-20T08:37:10.235Z,957.17
2018-11-20T08:38:10.172Z,957.14
2018-11-20T08:39:10.160Z,957.12
2018-11-20T08:40:10.154Z,957.15
2018-11-20T08:41:10.151Z,957.15
2018-11-20T08:42:10.196Z,957.13
2018-11-20T08:43:10.133Z,957.13
2018-11-20T08:44:10.170Z,957.14
2018-11-20T08:45:10.119Z,957.10
2018-11-20T08:46:10.102Z,957.12
2018-11-20T08:47:10.092Z,957.08
2018-11-20T08:48:10.097Z,957.18
2018-11-20T08:49:10.075Z,957.14
2018-11-20T08:50:10.081Z,957.13
2018-11-20T08:51:10.058Z,957.17
2018-11-20T08:52:10.048Z,957.06
2018-11-20T08:53:10.048Z,957.09
2018-11-20T08:54:10.032Z,957.11
2018-11-20T08:55:10.021Z,957.09
2018-11-20T08:56:10.020Z,957.09
2018-11-20T08:57:10.007Z,957.14
2018-11-20T08:58:09.997Z,957.11
2018-11-20T08:59:09.991Z,957.16
2018-11-20T09:00:09.983Z,957.15
2018-11-20T09:01:09.971Z,957.08
2018-11-20T09:02:10.039Z,957.06
2018-11-20T09:03:10.032Z,957.12
2018-11-20T09:04:09.943Z,957.13
2018-11-20T09:05:09.933Z,957.08
2018-11-20T09:06:09.923Z,957.08
2018-11-20T09:07:09.913Z,957.06
2018-11-20T09:08:09.907Z,957.06
2018-11-20T09:09:09.904Z,957.06
2018-11-20T09:10:09.967Z,957.01
2018-11-20T09:11:09.882Z,957.04
2018-11-20T09:12:09.873Z,957.01
2018-11-20T09:13:09.863Z,957.00
2018-11-20T09:14:09.857Z,956.99
2018-11-20T09:15:09.846Z,957.00
2018-11-20T09:16:09.839Z,957.02
2018-11-20T09:17:09.828Z,957.03
2018-11-20T09:18:09.824Z,957.01
2018-11-20T09:19:09.810Z,956.98
2018-11-20T09:20:09.818Z,957.05
2018-11-20T09:21:09.868Z,956.99
2018-11-20T09:22:09.787Z,957.02
2018-11-20T09:23:09.780Z,957.00
2018-11-20T09:24:09.768Z,957.06
2018-11-20T09:25:09.762Z,957.00
2018-11-20T09:26:09.752Z,956.92
2018-11-20T09:27:09.743Z,957.02
2018-11-20T09:28:09.735Z,956.99
2018-11-20T09:29:09.733Z,956.91
2018-11-20T09:30:09.719Z,956.97
2018-11-20T09:31:09.708Z,956.91
2018-11-20T09:32:09.698Z,956.88
2018-11-20T09:33:09.694Z,956.92
2018-11-20T09:34:09.704Z,956.92
2018-11-20T09:35:09.806Z,956.93
2018-11-20T09:36:09.666Z,956.92
2018-11-20T09:37:09.655Z,956.94
2018-11-20T09:38:09.648Z,956.97
2018-11-20T09:39:09.639Z,956.87
2018-11-20T09:40:09.629Z,956.89
2018-11-20T09:41:09.624Z,956.90
2018-11-20T09:42:09.614Z,956.92
2018-11-20T09:43:09.603Z,956.92
2018-11-20T09:44:09.594Z,956.90
2018-11-20T09:45:09.611Z,956.94
2018-11-20T09:46:09.584Z,956.92
2018-11-20T09:47:09.597Z,956.91
2018-11-20T09:48:09.560Z,956.93
2018-11-20T09:49:09.555Z,956.90
2018-11-20T09:50:09.543Z,956.94
2018-11-20T09:51:09.540Z,956.87
2018-11-20T09:52:09.553Z,956.92
2018-11-20T09:53:09.516Z,956.93
2018-11-20T09:54:09.551Z,956.87
2018-11-20T09:55:09.500Z,956.91
2018-11-20T09:56:09.492Z,956.89
2018-11-20T09:57:09.482Z,956.92
2018-11-20T09:58:09.476Z,956.94
2018-11-20T09:59:09.530Z,956.89
2018-11-20T10:00:09.459Z,956.93
2018-11-20T10:01:09.455Z,956.92
2018-11-20T10:02:09.440Z,956.92
2018-11-20T10:03:09.432Z,956.86
2018-11-20T10:04:09.428Z,956.89
2018-11-20T10:05:09.423Z,956.85
2018-11-20T10:06:09.408Z,956.82
2018-11-20T10:07:09.444Z,956.84
2018-11-20T10:08:09.391Z,956.84
2018-11-20T10:09:09.390Z,956.80
2018-11-20T10:10:09.373Z,956.81
2018-11-20T10:11:09.369Z,956.79
2018-11-20T10:12:09.356Z,956.83
2018-11-20T10:13:09.345Z,956.76
2018-11-20T10:14:09.429Z,956.76
2018-11-20T10:15:09.409Z,956.67
2018-11-20T10:16:09.325Z,956.68
2018-11-20T10:17:09.313Z,956.72
2018-11-20T10:18:09.305Z,956.68
2018-11-20T10:19:09.295Z,956.69
2018-11-20T10:20:09.287Z,956.67
2018-11-20T10:21:09.282Z,956.64
2018-11-20T10:22:09.391Z,956.61
2018-11-20T10:23:09.261Z,956.63
2018-11-20T10:24:09.254Z,956.59
2018-11-20T10:25:09.251Z,956.61
2018-11-20T10:26:09.349Z,956.66
2018-11-20T10:27:09.238Z,956.64
2018-11-20T10:28:09.219Z,956.70
2018-11-20T10:29:09.212Z,956.58
2018-11-20T10:31:09.190Z,956.51
2018-11-20T10:32:09.185Z,956.55
2018-11-20T10:33:09.175Z,956.52
2018-11-20T10:34:09.214Z,956.55
2018-11-20T10:35:09.159Z,956.51
2018-11-20T10:36:09.150Z,956.48
2018-11-20T10:37:09.143Z,956.55
2018-11-20T10:38:09.134Z,956.51
2018-11-20T10:39:09.119Z,956.51
2018-11-20T10:40:09.116Z,956.51
2018-11-20T10:41:09.121Z,956.53
2018-11-20T10:42:09.099Z,956.50
2018-11-20T10:43:09.089Z,956.49
2018-11-20T10:44:09.086Z,956.49
2018-11-20T10:45:09.075Z,956.47
2018-11-20T10:46:09.150Z,956.46
2018-11-20T10:47:09.063Z,956.48
2018-11-20T10:48:09.048Z,956.47
2018-11-20T10:49:09.040Z,956.43
2018-11-20T10:50:09.032Z,956.39
2018-11-20T10:51:09.101Z,956.38
2018-11-20T10:52:09.014Z,956.37
2018-11-20T10:53:09.004Z,956.33
2018-11-20T10:54:08.995Z,956.35
2018-11-20T10:55:08.989Z,956.27
2018-11-20T10:56:08.980Z,956.35
2018-11-20T10:57:08.972Z,956.36
2018-11-20T10:58:08.963Z,956.34
2018-11-20T10:59:08.952Z,956.30
2018-11-20T11:00:08.945Z,956.30
2018-11-20T11:01:08.948Z,956.28
2018-11-20T11:02:08.928Z,956.27
2018-11-20T11:03:08.919Z,956.26
2018-11-20T11:04:08.914Z,956.24
2018-11-20T11:05:08.988Z,956.22
2018-11-20T11:06:08.901Z,956.18
2018-11-20T11:07:09.273Z,956.25
2018-11-20T11:08:08.911Z,956.24
2018-11-20T11:09:08.868Z,956.19
2018-11-20T11:10:08.866Z,956.19
2018-11-20T11:11:08.851Z,956.07
2018-11-20T11:12:08.927Z,956.06
2018-11-20T11:13:08.833Z,956.07
2018-11-20T11:14:08.827Z,956.01
2018-11-20T11:15:08.815Z,956.07
2018-11-20T11:16:08.804Z,955.97
2018-11-20T11:17:08.797Z,956.01
2018-11-20T11:18:08.798Z,955.96
2018-11-20T11:19:08.778Z,956.02
2018-11-20T11:20:08.776Z,956.03
2018-11-20T11:21:08.840Z,955.98
2018-11-20T11:22:08.757Z,955.99
2018-11-20T11:23:08.745Z,955.97
2018-11-20T11:24:08.737Z,956.02
2018-11-20T11:25:08.730Z,956.03
2018-11-20T11:26:08.721Z,955.98
2018-11-20T11:27:08.713Z,955.99
2018-11-20T11:28:08.704Z,955.95
2018-11-20T11:29:08.696Z,956.03
2018-11-20T11:30:08.697Z,955.96
2018-11-20T11:31:08.678Z,955.98
2018-11-20T11:32:08.670Z,955.97
2018-11-20T11:33:08.665Z,956.01
2018-11-20T11:34:08.653Z,955.98
2018-11-20T11:35:08.646Z,956.00
2018-11-20T11:36:08.633Z,956.02
2018-11-20T11:37:08.674Z,955.98
2018-11-20T11:38:08.620Z,955.94
2018-11-20T11:39:08.612Z,955.99
2018-11-20T11:40:08.603Z,955.97
2018-11-20T11:41:08.594Z,955.92
2018-11-20T11:42:08.589Z,955.94
2018-11-20T11:43:08.575Z,955.95
2018-11-20T11:44:08.569Z,955.97
2018-11-20T11:45:08.558Z,955.98
2018-11-20T11:46:08.592Z,955.96
2018-11-20T11:47:08.540Z,955.95
2018-11-20T11:48:08.531Z,955.92
2018-11-20T11:49:08.525Z,955.92
2018-11-20T11:50:08.515Z,955.87
2018-11-20T11:51:08.510Z,955.85
2018-11-20T11:52:08.504Z,955.77
2018-11-20T11:53:08.486Z,955.76
2018-11-20T11:54:08.488Z,955.75
2018-11-20T11:55:08.531Z,955.78
2018-11-20T11:56:08.464Z,955.84
2018-11-20T11:57:08.455Z,955.82
2018-11-20T11:58:08.446Z,955.78
2018-11-20T11:59:08.438Z,955.83
2018-11-20T12:00:08.432Z,955.79
2018-11-20T12:01:08.421Z,955.78
2018-11-20T12:03:29.411Z,955.75
2018-11-20T12:04:29.404Z,955.76
2018-11-20T12:05:08.392Z,955.80
2018-11-20T12:06:08.379Z,955.79
2018-11-20T12:07:08.371Z,955.77
2018-11-20T12:08:08.366Z,955.81
2018-11-20T12:09:08.355Z,955.85
2018-11-20T12:10:08.449Z,955.84
2018-11-20T12:11:08.341Z,955.83
2018-11-20T12:12:08.329Z,955.77
2018-11-20T12:13:08.324Z,955.77
2018-11-20T12:14:08.314Z,955.76
2018-11-20T12:15:08.308Z,955.80
2018-11-20T12:16:08.297Z,955.77
2018-11-20T12:17:08.289Z,955.85
2018-11-20T12:18:08.278Z,955.76
2018-11-20T12:19:08.270Z,955.80
2018-11-20T12:20:08.264Z,955.81
2018-11-20T12:21:08.251Z,955.79
2018-11-20T12:22:08.265Z,955.72
2018-11-20T12:23:08.235Z,955.72
2018-11-20T12:24:08.230Z,955.68
2018-11-20T12:25:08.222Z,955.72
2018-11-20T12:26:08.210Z,955.78
2018-11-20T12:27:08.202Z,955.77
2018-11-20T12:28:08.193Z,955.74
2018-11-20T12:29:08.187Z,955.82
2018-11-20T12:30:08.183Z,955.83
2018-11-20T12:31:09.385Z,955.79
2018-11-20T12:32:08.521Z,955.80
2018-11-20T12:33:08.182Z,955.78
2018-11-20T12:34:08.146Z,955.75
2018-11-20T12:35:08.134Z,955.74
2018-11-20T12:36:08.130Z,955.76
2018-11-20T12:37:08.115Z,955.77
2018-11-20T12:38:08.105Z,955.70
2018-11-20T12:39:08.101Z,955.70
2018-11-20T12:40:08.103Z,955.70
2018-11-20T12:41:09.726Z,955.60
2018-11-20T12:42:08.076Z,955.58
2018-11-20T12:43:08.096Z,955.60
2018-11-20T12:44:08.052Z,955.55
2018-11-20T12:45:08.276Z,955.57
2018-11-20T12:46:12.959Z,955.57
2018-11-20T12:47:09.355Z,955.57
2018-11-20T12:48:08.021Z,955.68
2018-11-20T12:49:08.012Z,955.68
2018-11-20T12:50:08.565Z,955.64
2018-11-20T12:51:07.998Z,955.65
2018-11-20T12:52:07.985Z,955.61
2018-11-20T12:53:07.977Z,955.60
2018-11-20T12:54:07.969Z,955.62
2018-11-20T12:55:07.959Z,955.61
2018-11-20T12:56:07.950Z,955.62
2018-11-20T12:57:07.940Z,955.62
2018-11-20T12:58:07.933Z,955.62
2018-11-20T12:59:07.927Z,955.67
2018-11-20T13:00:07.915Z,955.70
2018-11-20T13:01:07.908Z,955.69
2018-11-20T13:02:07.899Z,955.74
2018-11-20T13:03:07.889Z,955.72
2018-11-20T13:04:08.846Z,955.75
2018-11-20T13:05:09.448Z,955.77
2018-11-20T13:06:07.866Z,955.77
2018-11-20T13:07:07.855Z,955.76
2018-11-20T13:08:07.851Z,955.70
2018-11-20T13:09:07.838Z,955.66
2018-11-20T13:10:07.828Z,955.73
2018-11-20T13:11:07.819Z,955.74
2018-11-20T13:12:07.810Z,955.71
2018-11-20T13:13:07.804Z,955.74
2018-11-20T13:14:07.797Z,955.80
2018-11-20T13:15:07.795Z,955.79
2018-11-20T13:16:07.777Z,955.75
2018-11-20T13:17:08.977Z,955.74
2018-11-20T13:18:09.118Z,955.74
2018-11-20T13:19:07.751Z,955.67
2018-11-20T13:20:08.119Z,955.70
2018-11-20T13:21:09.734Z,955.70
2018-11-20T13:22:07.735Z,955.67
2018-11-20T13:23:07.723Z,955.65
2018-11-20T13:24:09.582Z,955.59
2018-11-20T13:25:09.445Z,955.55
2018-11-20T13:26:07.688Z,955.59
2018-11-20T13:27:07.681Z,955.61
2018-11-20T13:28:07.672Z,955.63
2018-11-20T13:29:07.666Z,955.66
2018-11-20T13:30:07.655Z,955.70
2018-11-20T13:31:07.648Z,955.73
2018-11-20T13:32:07.647Z,955.68
2018-11-20T13:33:07.634Z,955.68
2018-11-20T13:34:07.622Z,955.66
2018-11-20T13:35:07.623Z,955.65
2018-11-20T13:36:07.614Z,955.63
2018-11-20T13:37:09.798Z,955.58
2018-11-20T13:38:07.591Z,955.56
2018-11-20T13:39:07.576Z,955.60
2018-11-20T13:40:07.565Z,955.63
2018-11-20T13:41:07.557Z,955.60
2018-11-20T13:42:07.547Z,955.67
2018-11-20T13:43:07.542Z,955.70
2018-11-20T13:44:07.530Z,955.72
2018-11-20T13:45:07.526Z,955.69
2018-11-20T13:46:07.513Z,955.67
2018-11-20T13:47:07.503Z,955.64
2018-11-20T13:48:07.497Z,955.66
2018-11-20T13:49:07.504Z,955.65
2018-11-20T13:50:07.485Z,955.68
2018-11-20T13:51:07.468Z,955.67
2018-11-20T13:52:07.460Z,955.67
2018-11-20T13:53:07.452Z,955.71
2018-11-20T13:54:07.442Z,955.69
2018-11-20T13:55:07.437Z,955.77
2018-11-20T13:56:07.425Z,955.73
2018-11-20T13:57:07.415Z,955.70
2018-11-20T13:58:07.411Z,955.71
2018-11-20T13:59:07.400Z,955.75
2018-11-20T14:00:07.390Z,955.74
2018-11-20T14:01:07.380Z,955.70
2018-11-20T14:02:07.372Z,955.74
2018-11-20T14:03:07.365Z,955.78
2018-11-20T14:04:07.364Z,955.72
2018-11-20T14:05:07.352Z,955.74
2018-11-20T14:06:07.346Z,955.75
2018-11-20T14:07:07.332Z,955.74
2018-11-20T14:08:07.324Z,955.68
2018-11-20T14:09:08.055Z,955.69
2018-11-20T14:10:07.305Z,955.65
2018-11-20T14:11:07.296Z,955.69
2018-11-20T14:12:07.286Z,955.70
2018-11-20T14:13:07.283Z,955.66
2018-11-20T14:14:07.282Z,955.66
2018-11-20T14:15:07.263Z,955.70
2018-11-20T14:16:07.266Z,955.77
2018-11-20T14:17:07.242Z,955.77
2018-11-20T14:18:07.260Z,955.79
2018-11-20T14:19:07.224Z,955.75
2018-11-20T14:20:07.216Z,955.80
2018-11-20T14:21:07.214Z,955.78
2018-11-20T14:22:07.205Z,955.80
2018-11-20T14:23:07.191Z,955.81
2018-11-20T14:24:07.181Z,955.81
2018-11-20T14:25:07.411Z,955.78
2018-11-20T14:26:07.311Z,955.84
2018-11-20T14:27:07.159Z,955.82
2018-11-20T14:28:07.147Z,955.83
2018-11-20T14:29:07.137Z,955.87
2018-11-20T14:30:07.132Z,955.81
2018-11-20T14:31:07.124Z,955.87
2018-11-20T14:32:07.113Z,955.82
2018-11-20T14:33:07.102Z,955.90
2018-11-20T14:34:07.092Z,955.85
2018-11-20T14:35:07.089Z,955.85
2018-11-20T14:36:07.077Z,955.89
2018-11-20T14:37:07.069Z,955.92
2018-11-20T14:38:07.059Z,955.92
2018-11-20T14:39:07.049Z,955.90
2018-11-20T14:40:07.042Z,955.91
2018-11-20T14:41:07.033Z,955.95
2018-11-20T14:42:07.022Z,955.93
2018-11-20T14:43:07.016Z,955.95
2018-11-20T14:44:07.005Z,955.98
2018-11-20T14:45:06.995Z,955.99
2018-11-20T14:46:06.988Z,955.98
2018-11-20T14:47:06.979Z,955.95
2018-11-20T14:48:06.971Z,955.95
2018-11-20T14:49:06.965Z,955.97
2018-11-20T14:50:06.956Z,955.99
2018-11-20T14:51:06.956Z,955.99
2018-11-20T14:52:06.934Z,956.03
2018-11-20T14:53:06.927Z,955.97
2018-11-20T14:54:06.921Z,956.01
2018-11-20T14:55:06.916Z,956.01
2018-11-20T14:56:06.899Z,956.01
2018-11-20T14:57:06.891Z,956.05
2018-11-20T14:58:06.886Z,956.02
2018-11-20T14:59:06.875Z,956.01
2018-11-20T15:00:06.864Z,956.03
2018-11-20T15:01:06.856Z,956.04
2018-11-20T15:02:06.846Z,956.06
2018-11-20T15:03:06.845Z,956.03
2018-11-20T15:04:06.829Z,956.01
2018-11-20T15:05:06.823Z,955.96
2018-11-20T15:06:06.814Z,955.96
2018-11-20T15:07:06.803Z,955.97
2018-11-20T15:08:06.795Z,955.91
2018-11-20T15:09:06.785Z,955.92
2018-11-20T15:10:06.778Z,955.89
2018-11-20T15:11:06.764Z,955.92
2018-11-20T15:12:06.759Z,955.91
2018-11-20T15:13:06.753Z,955.88
2018-11-20T15:14:06.744Z,955.88
2018-11-20T15:15:06.733Z,955.86
2018-11-20T15:16:06.732Z,955.87
2018-11-20T15:17:06.727Z,955.87
2018-11-20T15:18:06.709Z,955.91
2018-11-20T15:19:06.696Z,955.93
2018-11-20T15:20:06.690Z,955.95
2018-11-20T15:21:06.678Z,955.94
2018-11-20T15:22:06.670Z,955.95
2018-11-20T15:23:06.663Z,955.93
2018-11-20T15:24:06.655Z,955.90
2018-11-20T15:25:06.647Z,955.94
2018-11-20T15:26:06.638Z,955.93
2018-11-20T15:27:06.636Z,955.90
2018-11-20T15:28:06.800Z,955.98
2018-11-20T15:29:06.611Z,955.96
2018-11-20T15:30:06.608Z,955.98
2018-11-20T15:31:06.594Z,955.97
2018-11-20T15:32:06.586Z,955.96
2018-11-20T15:33:06.573Z,955.98
2018-11-20T15:34:06.565Z,955.98
2018-11-20T15:35:06.557Z,955.99
2018-11-20T15:36:06.546Z,955.97
2018-11-20T15:37:06.537Z,955.99
2018-11-20T15:38:06.536Z,955.99
2018-11-20T15:39:06.519Z,956.03
2018-11-20T15:40:06.515Z,956.06
2018-11-20T15:41:06.501Z,956.01
2018-11-20T15:42:06.892Z,956.03
2018-11-20T15:43:06.480Z,956.01
2018-11-20T15:44:06.477Z,956.05
2018-11-20T15:45:06.499Z,956.06
2018-11-20T15:46:06.512Z,956.08
2018-11-20T15:47:06.445Z,956.10
2018-11-20T15:48:06.532Z,956.11
2018-11-20T15:49:06.433Z,956.09
2018-11-20T15:50:06.424Z,956.07
2018-11-20T15:51:06.416Z,956.07
2018-11-20T15:52:06.440Z,956.06
2018-11-20T15:53:06.428Z,956.07
2018-11-20T15:54:06.392Z,956.02
2018-11-20T15:55:06.379Z,956.06
2018-11-20T15:56:06.372Z,956.05
2018-11-20T15:57:06.361Z,956.06
2018-11-20T15:58:59.260Z,956.05
2018-11-20T15:59:59.230Z,956.03
2018-11-20T16:01:52.652Z,956.06
2018-11-20T16:02:52.622Z,956.06
2018-11-20T16:04:45.503Z,956.04
2018-11-20T16:05:45.490Z,956.05
2018-11-20T16:07:38.370Z,956.07
2018-11-20T16:08:38.324Z,956.08
2018-11-20T16:10:31.817Z,956.10
2018-11-20T16:11:31.709Z,956.05
2018-11-20T16:12:31.701Z,956.14
2018-11-20T16:13:31.708Z,956.18
2018-11-20T16:14:31.681Z,956.22
2018-11-20T16:15:31.675Z,956.23
2018-11-20T16:16:31.660Z,956.27
2018-11-20T16:17:31.657Z,956.36
2018-11-20T16:18:31.662Z,956.41
2018-11-20T16:19:31.635Z,956.37
2018-11-20T16:20:31.624Z,956.36
2018-11-20T16:21:31.616Z,956.32
2018-11-20T16:22:31.608Z,956.36
2018-11-20T16:23:38.927Z,956.29
2018-11-20T16:25:24.472Z,956.30
2018-11-20T16:26:24.451Z,956.31
2018-11-20T16:27:24.502Z,956.35
2018-11-20T16:28:24.429Z,956.34
2018-11-20T16:29:24.428Z,956.37
2018-11-20T16:30:24.420Z,956.39
2018-11-20T16:31:24.402Z,956.37
2018-11-20T16:32:24.398Z,956.38
2018-11-20T16:33:24.386Z,956.39
2018-11-20T16:34:24.421Z,956.37
2018-11-20T16:35:24.385Z,956.37
2018-11-20T16:36:24.359Z,956.41
2018-11-20T16:37:24.398Z,956.36
2018-11-20T16:38:24.347Z,956.40
2018-11-20T16:39:24.437Z,956.34
2018-11-20T16:40:24.336Z,956.42
2018-11-20T16:41:31.729Z,956.43
2018-11-20T16:43:17.189Z,956.45
2018-11-20T16:44:17.160Z,956.46
2018-11-20T16:46:11.149Z,956.42
2018-11-20T16:47:10.992Z,956.44
2018-11-20T16:49:03.885Z,956.48
2018-11-20T16:50:03.857Z,956.53
2018-11-20T16:51:56.846Z,956.60
2018-11-20T16:52:56.709Z,956.57
2018-11-20T16:54:50.138Z,956.55
2018-11-20T16:55:50.364Z,956.59
2018-11-20T16:57:43.523Z,956.57
2018-11-20T16:58:43.447Z,956.52
2018-11-20T16:59:43.443Z,956.52
2018-11-20T17:00:43.434Z,956.52
2018-11-20T17:01:43.574Z,956.58
2018-11-20T17:02:43.477Z,956.61
2018-11-20T17:03:43.418Z,956.55
2018-11-20T17:04:43.468Z,956.59
2018-11-20T17:05:43.406Z,956.64
2018-11-20T17:06:43.382Z,956.61
2018-11-20T17:07:43.365Z,956.67
2018-11-20T17:08:43.360Z,956.71
2018-11-20T17:09:43.449Z,956.66
2018-11-20T17:10:43.343Z,956.65
2018-11-20T17:11:43.331Z,956.67
2018-11-20T17:12:43.322Z,956.67
2018-11-20T17:13:43.311Z,956.67
2018-11-20T17:14:43.311Z,956.69
2018-11-20T17:15:43.303Z,956.69
2018-11-20T17:16:43.285Z,956.71
2018-11-20T17:17:43.288Z,956.71
2018-11-20T17:18:43.271Z,956.72
2018-11-20T17:19:43.261Z,956.69
2018-11-20T17:20:43.258Z,956.73
2018-11-20T17:21:43.246Z,956.76
2018-11-20T17:22:43.240Z,956.76
2018-11-20T17:23:43.264Z,956.73
2018-11-20T17:24:43.246Z,956.79
2018-11-20T17:25:43.223Z,956.78
2018-11-20T17:26:43.200Z,956.81
2018-11-20T17:27:43.204Z,956.79
2018-11-20T17:28:43.200Z,956.82
2018-11-20T17:29:50.660Z,956.84
2018-11-20T17:31:36.629Z,956.85
2018-11-20T17:32:36.590Z,956.84
2018-11-20T17:34:30.010Z,956.85
2018-11-20T17:35:29.990Z,956.87
2018-11-20T17:37:23.863Z,956.89
2018-11-20T17:38:25.468Z,956.90
2018-11-20T17:40:20.927Z,956.91
2018-11-20T17:41:16.695Z,956.93
2018-11-20T17:42:16.792Z,957.00
2018-11-20T17:43:16.691Z,956.99
2018-11-20T17:44:16.666Z,957.01
2018-11-20T17:45:16.657Z,957.01
2018-11-20T17:46:16.654Z,957.00
2018-11-20T17:47:16.645Z,957.01
2018-11-20T17:48:16.693Z,957.03
2018-11-20T17:49:16.603Z,957.01
2018-11-20T17:50:16.620Z,957.02
2018-11-20T17:51:24.149Z,957.02
2018-11-20T17:53:09.712Z,957.02
2018-11-20T17:54:17.112Z,957.01
2018-11-20T17:56:02.847Z,957.08
2018-11-20T17:57:02.828Z,957.04
2018-11-20T17:58:56.269Z,957.09
2018-11-20T17:59:55.776Z,957.09
2018-11-20T18:01:48.605Z,957.08
2018-11-20T18:02:55.733Z,957.07
2018-11-20T18:04:41.977Z,957.08
2018-11-20T18:05:41.959Z,957.06
2018-11-20T18:07:36.091Z,957.09
2018-11-20T18:08:35.322Z,957.09
2018-11-20T18:10:28.792Z,957.04
2018-11-20T18:11:28.716Z,957.10
2018-11-20T18:12:28.698Z,957.05
2018-11-20T18:13:28.681Z,957.06
2018-11-20T18:14:28.672Z,957.07
2018-11-20T18:15:28.675Z,957.07
2018-11-20T18:16:35.944Z,957.07
2018-11-20T18:18:22.057Z,957.05
2018-11-20T18:19:22.039Z,957.08
2018-11-20T18:21:15.422Z,957.07
2018-11-20T18:22:16.573Z,957.05
2018-11-20T18:24:08.818Z,957.03
2018-11-20T18:25:08.811Z,957.03
2018-11-20T18:27:02.337Z,957.07
2018-11-20T18:28:02.391Z,957.05
2018-11-20T18:29:55.237Z,957.10
2018-11-20T18:30:55.056Z,957.04
2018-11-20T18:32:52.807Z,957.06
2018-11-20T18:33:47.900Z,957.08
2018-11-20T18:35:41.339Z,957.10
2018-11-20T18:36:41.304Z,957.15
2018-11-20T18:38:34.523Z,957.17
2018-11-20T18:39:34.516Z,957.14
2018-11-20T18:41:27.358Z,957.12
2018-11-20T18:42:27.347Z,957.13
2018-11-20T18:44:20.807Z,957.12
2018-11-20T18:47:12.519Z,957.07
2018-11-20T18:48:19.663Z,957.13
2018-11-20T18:50:06.765Z,957.09
2018-11-20T18:51:06.681Z,957.14
2018-11-20T18:53:00.745Z,957.13
2018-11-20T18:54:00.053Z,957.15
2018-11-20T18:55:52.911Z,957.17
2018-11-20T18:56:52.982Z,957.12
2018-11-20T18:58:45.772Z,957.18
2018-11-20T18:59:45.738Z,957.17
2018-11-20T19:01:39.161Z,957.17
2018-11-20T19:02:39.178Z,957.15
2018-11-20T19:04:32.061Z,957.16
2018-11-20T19:05:32.046Z,957.12
2018-11-20T19:06:32.451Z,957.08
2018-11-20T19:07:31.977Z,957.08
2018-11-20T19:08:31.969Z,957.09
2018-11-20T19:09:31.959Z,957.12
2018-11-20T19:10:31.950Z,957.14
2018-11-20T19:11:31.942Z,957.12
2018-11-20T19:12:31.934Z,957.14
2018-11-20T19:13:31.942Z,957.13
2018-11-20T19:14:31.918Z,957.18
2018-11-20T19:15:31.908Z,957.17
2018-11-20T19:16:31.897Z,957.21
2018-11-20T19:17:31.904Z,957.19
2018-11-20T19:18:40.135Z,957.19
2018-11-20T19:20:25.327Z,957.23
2018-11-20T19:21:25.365Z,957.25
2018-11-20T19:23:18.232Z,957.26
2018-11-20T19:24:26.513Z,957.28
2018-11-20T19:26:11.858Z,957.18
2018-11-20T19:27:11.579Z,957.21
2018-11-20T19:29:04.992Z,957.28
2018-11-20T19:30:04.997Z,957.32
2018-11-20T19:31:57.821Z,957.30
2018-11-20T19:32:57.781Z,957.28